Pagina principale
METAR-TAF:

METAR-TAF

Aeroporti :

Firenze, Italia

Aeroporto di Firenze-Peretola

latitudine: 43-48N, longitudine: 011-12E, altezza: 40 m

Osservazione

Il bollettino è stato emesso 14 minuti fa, alle 10:20 UTC
Vento 3 kt da direzioni variabili
Temperature 22°C
Umidità 50%
Pressione 1020 hPa
Visibilità 10 km o più
nessuna nube inferiore a 1500 m e nessun cumulonembo

METAR: LIRQ 211020Z VRB03KT CAVOK 22/11 Q1020

Ora: 12:34 (10:34 UTC)

Previsione

Il bollettino è stato emesso 5 ore e 34 minuti fa, alle 05:00 UTC
Previsione valida dal 21 alle 06 UTC al 22 alle 06 UTC
Vento 6 kt da direzioni variabili
Visibilità 10 km o più
Poco nuvoloso ad un'altezza di 3000 ft

TAF: LIRQ 210500Z 2106/2206 VRB06KT 9999 FEW030

Osservazioni e previsioni meteorologiche di più di 4000 aeroporti (messaggi METAR e TAF).

Le stazioni disponibili sono rappresentate dai dischi gialli e rossi sulla carta.

Puntare il mouse per vedere il nome della stazione.

Clicca sopra per visualizzare le osservazioni e previsioni meteorologiche.

Per cambiare la mappa : fare clic sui pulsanti verdi con una croce nera per ingrandire, il pulsante verde con un trattino per diminuire, o sulla freccia verde per le mappe adiacenti.


METAR-TAF: